Custer, WA (98240)

5:33 PM PDT on August 28, 2016 (GMT -0700)
Dakota Creek Farm | | Change Station

Elev 141 ft 48.97 °N, 122.63 °W | Updated 5 seconds ago

Light Rain
Light Rain
59.3 °F
Feels Like 59.3 °F
N
0.0
Wind Variable Wind from West
Gusts 1.0 mph

Today
High -- | Low -- °F
--% Chance of Precip.
Yesterday
High -- | Low -- °F
Precip. -- in
Pressure 30.11 in
Visibility 10.0 miles
Clouds Overcast 11000 ft
Dew Point 57 °F
Humidity 92%
Rainfall 0.02 in
Snow Depth Not available.
6:22 AM 7:59 PM
Waning Crescent, 12% visible
METAR KBLI 282353Z 00000KT 10SM -RA OVC110 16/14 A3009 RMK AO2 RAB29 SLP196 P0000 60003 T01610139 10194 20161 50003
Pressure 30.11 in
Visibility 10.0 miles
Clouds Overcast 11000 ft
Dew Point 57 °F
Humidity 92%
Rainfall 0.02 in
Snow Depth Not available.
6:22 AM 7:59 PM
Waning Crescent, 12% visible
METAR KBLI 282353Z 00000KT 10SM -RA OVC110 16/14 A3009 RMK AO2 RAB29 SLP196 P0000 60003 T01610139 10194 20161 50003

10-Day Weather Forecast

Almanac

Astronomy

Aug. 28, 2016 Rise Set
Actual Time
Civil Twilight
Nautical Twilight
Astronomical Twilight
Moon
Length of Visible Light
Length of Day
Tomorrow will be .
, % of the Moon is Illuminated

Today's Extremes

State Highs State Lows

Community

WunderPhotos

Upload Photos

1,935,743 photos uploaded!

WunderBlog® & News

Nearby

Air Quality

  Air Quality AQ Index Pollutant
Not available.

Snow Depth

Station Depth Elevation

Earthquake Activity

City Distance Mag. Time & Date
Minimum magnitude displayed is 2.5.

Coastal Water Temperatures

Place Temperature

Stations

Nearby Weather Stations

Station Location Temp. Windchill Dew Point Humidity Wind Precip. Elev Updated Type
                   

Watches & Warnings

There are currently no watches in effect.